Elmira, Canada
Current Conditions -  °F | °C
As of 11:00 PM on Wednesday 28 Jan 2015 (Local Time) from CYKF Reporting Station
Few Clouds Few Clouds  
Wind Chill: 18°   Ceiling: Unl
Heat Index: 18°   Visibility: 9mi
Dew Point: 12°   Wind: 2mph
Humidity: 79%   Direction: 160°SSE
Pressure: 30.21"   Gusts: NA
Location:  43.6°N, 80.55°W
Report Text: CYKF 290400Z AUTO 16002KT 9SM FEW130 M08/M11 A3021 RMK SLP249
Loading
Personal Weather Stations






























Interactive Weather Map New forecast layout! Learn more

10-Day Weather Forecast

Advertisements
Track Severe Weather on mobile